Eminence, Kentucky
Current Conditions -  °F | °C
As of 11:53 AM on Thursday 27 Nov 2014 (Local Time) from KFFT Reporting Station
Broken Clouds Broken Clouds  
Wind Chill: 27°   Ceiling: 2800
Heat Index: 33°   Visibility: 10mi
Dew Point: 21°   Wind: 7mph
Humidity: 61%   Direction: NA
Pressure: 30.3"   Gusts: NA
Location:  38.37°N, 85.18°W
Report Text: KFFT 271653Z AUTO VRB06KT 10SM BKN028 01/M06 A3030 RMK AO2 SLP268 T00061061
Loading
Personal Weather Stations






























Interactive Weather Map New forecast layout! Learn more

10-Day Weather Forecast

Advertisements
Track Severe Weather on mobile